sensor_id;sensor_type;location;lat;lon;timestamp;P1;durP1;ratioP1;P2;durP2;ratioP2
18501;SDS011;68437;52.236;5.710;2023-07-24T00:00:50;10.13;;;6.40;;
18501;SDS011;68437;52.236;5.710;2023-07-24T00:03:17;10.35;;;6.72;;
18501;SDS011;68437;52.236;5.710;2023-07-24T00:05:44;10.13;;;6.25;;
18501;SDS011;68437;52.236;5.710;2023-07-24T00:08:11;10.02;;;6.20;;
18501;SDS011;68437;52.236;5.710;2023-07-24T00:10:39;9.15;;;5.93;;
18501;SDS011;68437;52.236;5.710;2023-07-24T00:13:06;11.38;;;7.07;;
18501;SDS011;68437;52.236;5.710;2023-07-24T00:15:33;11.45;;;7.15;;
18501;SDS011;68437;52.236;5.710;2023-07-24T00:18:00;10.05;;;6.72;;
18501;SDS011;68437;52.236;5.710;2023-07-24T00:20:27;12.52;;;7.30;;
18501;SDS011;68437;52.236;5.710;2023-07-24T00:22:54;12.70;;;7.13;;
18501;SDS011;68437;52.236;5.710;2023-07-24T00:25:21;13.63;;;7.43;;
18501;SDS011;68437;52.236;5.710;2023-07-24T00:27:49;10.75;;;6.90;;
18501;SDS011;68437;52.236;5.710;2023-07-24T00:30:16;9.98;;;6.80;;
18501;SDS011;68437;52.236;5.710;2023-07-24T00:32:43;12.15;;;7.07;;
18501;SDS011;68437;52.236;5.710;2023-07-24T00:35:09;10.10;;;6.72;;
18501;SDS011;68437;52.236;5.710;2023-07-24T00:37:36;9.90;;;6.38;;
18501;SDS011;68437;52.236;5.710;2023-07-24T00:40:03;10.60;;;7.10;;
18501;SDS011;68437;52.236;5.710;2023-07-24T00:42:31;10.65;;;7.22;;
18501;SDS011;68437;52.236;5.710;2023-07-24T00:44:59;11.23;;;7.40;;
18501;SDS011;68437;52.236;5.710;2023-07-24T00:47:26;10.15;;;6.85;;
18501;SDS011;68437;52.236;5.710;2023-07-24T00:49:54;10.32;;;6.85;;
18501;SDS011;68437;52.236;5.710;2023-07-24T00:52:21;11.35;;;7.05;;
18501;SDS011;68437;52.236;5.710;2023-07-24T00:54:48;12.25;;;7.60;;
18501;SDS011;68437;52.236;5.710;2023-07-24T00:57:16;11.30;;;7.75;;
18501;SDS011;68437;52.236;5.710;2023-07-24T00:59:43;11.95;;;7.50;;
18501;SDS011;68437;52.236;5.710;2023-07-24T01:02:12;11.40;;;7.53;;
18501;SDS011;68437;52.236;5.710;2023-07-24T01:04:39;11.60;;;7.55;;
18501;SDS011;68437;52.236;5.710;2023-07-24T01:07:06;11.40;;;7.78;;
18501;SDS011;68437;52.236;5.710;2023-07-24T01:09:33;11.35;;;7.90;;
18501;SDS011;68437;52.236;5.710;2023-07-24T01:12:02;12.18;;;7.55;;
18501;SDS011;68437;52.236;5.710;2023-07-24T01:14:36;13.20;;;8.10;;
18501;SDS011;68437;52.236;5.710;2023-07-24T01:17:09;13.82;;;8.40;;
18501;SDS011;68437;52.236;5.710;2023-07-24T01:19:41;11.77;;;8.40;;
18501;SDS011;68437;52.236;5.710;2023-07-24T01:22:10;11.48;;;7.40;;
18501;SDS011;68437;52.236;5.710;2023-07-24T01:24:47;13.30;;;8.65;;
18501;SDS011;68437;52.236;5.710;2023-07-24T01:27:24;11.60;;;7.88;;
18501;SDS011;68437;52.236;5.710;2023-07-24T01:29:51;13.35;;;8.63;;
18501;SDS011;68437;52.236;5.710;2023-07-24T01:32:18;12.60;;;8.18;;
18501;SDS011;68437;52.236;5.710;2023-07-24T01:34:45;11.82;;;8.15;;
18501;SDS011;68437;52.236;5.710;2023-07-24T01:37:13;13.30;;;8.73;;
18501;SDS011;68437;52.236;5.710;2023-07-24T01:39:41;14.20;;;9.52;;
18501;SDS011;68437;52.236;5.710;2023-07-24T01:42:10;13.25;;;8.63;;
18501;SDS011;68437;52.236;5.710;2023-07-24T01:44:38;15.50;;;9.05;;
18501;SDS011;68437;52.236;5.710;2023-07-24T01:47:05;12.02;;;8.60;;
18501;SDS011;68437;52.236;5.710;2023-07-24T01:49:32;12.55;;;8.20;;
18501;SDS011;68437;52.236;5.710;2023-07-24T01:51:59;13.13;;;8.45;;
18501;SDS011;68437;52.236;5.710;2023-07-24T01:54:26;12.98;;;8.80;;
18501;SDS011;68437;52.236;5.710;2023-07-24T01:56:53;13.75;;;8.65;;
18501;SDS011;68437;52.236;5.710;2023-07-24T01:59:20;11.85;;;7.70;;
18501;SDS011;68437;52.236;5.710;2023-07-24T02:01:48;12.25;;;8.43;;
18501;SDS011;68437;52.236;5.710;2023-07-24T02:04:15;11.13;;;8.02;;
18501;SDS011;68437;52.236;5.710;2023-07-24T02:06:41;12.00;;;7.85;;
18501;SDS011;68437;52.236;5.710;2023-07-24T02:09:09;13.35;;;8.57;;
18501;SDS011;68437;52.236;5.710;2023-07-24T02:11:36;11.23;;;7.88;;
18501;SDS011;68437;52.236;5.710;2023-07-24T02:14:03;12.63;;;7.80;;
18501;SDS011;68437;52.236;5.710;2023-07-24T02:16:30;14.50;;;9.10;;
18501;SDS011;68437;52.236;5.710;2023-07-24T02:18:58;13.05;;;8.82;;
18501;SDS011;68437;52.236;5.710;2023-07-24T02:21:25;15.63;;;9.45;;
18501;SDS011;68437;52.236;5.710;2023-07-24T02:23:52;16.08;;;9.02;;
18501;SDS011;68437;52.236;5.710;2023-07-24T02:26:19;15.38;;;9.60;;
18501;SDS011;68437;52.236;5.710;2023-07-24T02:28:46;12.98;;;8.80;;
18501;SDS011;68437;52.236;5.710;2023-07-24T02:31:13;13.10;;;8.90;;
18501;SDS011;68437;52.236;5.710;2023-07-24T02:33:39;12.35;;;8.57;;
18501;SDS011;68437;52.236;5.710;2023-07-24T02:36:08;13.15;;;8.73;;
18501;SDS011;68437;52.236;5.710;2023-07-24T02:38:35;13.82;;;9.30;;
18501;SDS011;68437;52.236;5.710;2023-07-24T02:41:02;15.20;;;9.70;;
18501;SDS011;68437;52.236;5.710;2023-07-24T02:43:28;15.05;;;10.32;;
18501;SDS011;68437;52.236;5.710;2023-07-24T02:45:59;15.73;;;9.65;;
18501;SDS011;68437;52.236;5.710;2023-07-24T02:48:27;14.93;;;9.88;;
18501;SDS011;68437;52.236;5.710;2023-07-24T02:50:54;15.68;;;10.77;;
18501;SDS011;68437;52.236;5.710;2023-07-24T02:53:22;17.60;;;10.85;;
18501;SDS011;68437;52.236;5.710;2023-07-24T02:55:49;15.32;;;10.20;;
18501;SDS011;68437;52.236;5.710;2023-07-24T02:58:15;16.73;;;11.20;;
18501;SDS011;68437;52.236;5.710;2023-07-24T03:00:42;15.95;;;10.48;;
18501;SDS011;68437;52.236;5.710;2023-07-24T03:03:09;17.27;;;11.23;;
18501;SDS011;68437;52.236;5.710;2023-07-24T03:05:36;15.50;;;10.50;;
18501;SDS011;68437;52.236;5.710;2023-07-24T03:08:03;14.75;;;10.13;;
18501;SDS011;68437;52.236;5.710;2023-07-24T03:10:32;15.65;;;10.30;;
18501;SDS011;68437;52.236;5.710;2023-07-24T03:12:58;17.50;;;11.05;;
18501;SDS011;68437;52.236;5.710;2023-07-24T03:15:25;16.08;;;10.90;;
18501;SDS011;68437;52.236;5.710;2023-07-24T03:17:52;17.27;;;11.00;;
18501;SDS011;68437;52.236;5.710;2023-07-24T03:20:19;18.50;;;11.35;;
18501;SDS011;68437;52.236;5.710;2023-07-24T03:22:46;15.52;;;11.00;;
18501;SDS011;68437;52.236;5.710;2023-07-24T03:25:13;15.63;;;10.60;;
18501;SDS011;68437;52.236;5.710;2023-07-24T03:27:42;15.07;;;10.27;;
18501;SDS011;68437;52.236;5.710;2023-07-24T03:30:09;14.35;;;9.77;;
18501;SDS011;68437;52.236;5.710;2023-07-24T03:32:36;13.15;;;9.15;;
18501;SDS011;68437;52.236;5.710;2023-07-24T03:35:04;16.40;;;10.30;;
18501;SDS011;68437;52.236;5.710;2023-07-24T03:37:31;17.20;;;10.63;;
18501;SDS011;68437;52.236;5.710;2023-07-24T03:40:00;16.25;;;10.30;;
18501;SDS011;68437;52.236;5.710;2023-07-24T03:42:27;19.13;;;10.75;;
18501;SDS011;68437;52.236;5.710;2023-07-24T03:44:57;17.98;;;11.07;;
18501;SDS011;68437;52.236;5.710;2023-07-24T03:47:24;16.48;;;10.40;;
18501;SDS011;68437;52.236;5.710;2023-07-24T03:49:51;17.38;;;10.93;;
18501;SDS011;68437;52.236;5.710;2023-07-24T03:52:18;16.73;;;11.13;;
18501;SDS011;68437;52.236;5.710;2023-07-24T03:54:45;18.08;;;11.50;;
18501;SDS011;68437;52.236;5.710;2023-07-24T03:57:11;19.83;;;12.32;;
18501;SDS011;68437;52.236;5.710;2023-07-24T03:59:38;18.85;;;11.80;;
18501;SDS011;68437;52.236;5.710;2023-07-24T04:02:07;19.30;;;12.35;;
18501;SDS011;68437;52.236;5.710;2023-07-24T04:04:34;19.73;;;12.55;;
18501;SDS011;68437;52.236;5.710;2023-07-24T04:07:00;17.67;;;11.48;;
18501;SDS011;68437;52.236;5.710;2023-07-24T04:09:27;20.75;;;12.27;;
18501;SDS011;68437;52.236;5.710;2023-07-24T04:11:54;18.08;;;11.32;;
18501;SDS011;68437;52.236;5.710;2023-07-24T04:14:21;20.70;;;12.18;;
18501;SDS011;68437;52.236;5.710;2023-07-24T04:16:48;20.40;;;12.48;;
18501;SDS011;68437;52.236;5.710;2023-07-24T04:19:16;18.30;;;11.10;;
18501;SDS011;68437;52.236;5.710;2023-07-24T04:21:43;19.85;;;11.15;;
18501;SDS011;68437;52.236;5.710;2023-07-24T04:24:10;18.98;;;10.55;;
18501;SDS011;68437;52.236;5.710;2023-07-24T04:26:37;19.95;;;11.23;;
18501;SDS011;68437;52.236;5.710;2023-07-24T04:29:04;19.23;;;10.95;;
18501;SDS011;68437;52.236;5.710;2023-07-24T04:31:32;17.92;;;10.30;;
18501;SDS011;68437;52.236;5.710;2023-07-24T04:33:58;19.38;;;10.82;;
18501;SDS011;68437;52.236;5.710;2023-07-24T04:36:27;19.77;;;10.77;;
18501;SDS011;68437;52.236;5.710;2023-07-24T04:38:54;22.35;;;10.93;;
18501;SDS011;68437;52.236;5.710;2023-07-24T04:41:20;19.30;;;10.20;;
18501;SDS011;68437;52.236;5.710;2023-07-24T04:43:47;20.85;;;11.02;;
18501;SDS011;68437;52.236;5.710;2023-07-24T04:46:14;21.13;;;10.70;;
18501;SDS011;68437;52.236;5.710;2023-07-24T04:48:41;19.00;;;10.27;;
18501;SDS011;68437;52.236;5.710;2023-07-24T04:51:08;20.90;;;11.52;;
18501;SDS011;68437;52.236;5.710;2023-07-24T04:53:36;20.38;;;10.63;;
18501;SDS011;68437;52.236;5.710;2023-07-24T04:56:03;21.00;;;10.50;;
18501;SDS011;68437;52.236;5.710;2023-07-24T04:58:30;21.27;;;11.30;;
18501;SDS011;68437;52.236;5.710;2023-07-24T05:00:57;23.45;;;11.88;;
18501;SDS011;68437;52.236;5.710;2023-07-24T05:03:27;22.45;;;11.48;;
18501;SDS011;68437;52.236;5.710;2023-07-24T05:05:54;20.30;;;11.43;;
18501;SDS011;68437;52.236;5.710;2023-07-24T05:08:21;23.02;;;11.35;;
18501;SDS011;68437;52.236;5.710;2023-07-24T05:10:54;21.50;;;12.10;;
18501;SDS011;68437;52.236;5.710;2023-07-24T05:13:21;20.55;;;11.45;;
18501;SDS011;68437;52.236;5.710;2023-07-24T05:15:48;22.58;;;12.05;;
18501;SDS011;68437;52.236;5.710;2023-07-24T05:18:15;23.35;;;11.52;;
18501;SDS011;68437;52.236;5.710;2023-07-24T05:20:42;24.40;;;11.48;;
18501;SDS011;68437;52.236;5.710;2023-07-24T05:23:11;20.10;;;11.32;;
18501;SDS011;68437;52.236;5.710;2023-07-24T05:25:38;19.33;;;11.20;;
18501;SDS011;68437;52.236;5.710;2023-07-24T05:28:07;22.35;;;11.30;;
18501;SDS011;68437;52.236;5.710;2023-07-24T05:30:34;21.65;;;11.52;;
18501;SDS011;68437;52.236;5.710;2023-07-24T05:33:01;19.60;;;10.95;;
18501;SDS011;68437;52.236;5.710;2023-07-24T05:35:27;25.02;;;12.10;;
18501;SDS011;68437;52.236;5.710;2023-07-24T05:37:54;21.40;;;11.82;;
18501;SDS011;68437;52.236;5.710;2023-07-24T05:40:21;22.50;;;11.60;;
18501;SDS011;68437;52.236;5.710;2023-07-24T05:42:48;23.20;;;11.95;;
18501;SDS011;68437;52.236;5.710;2023-07-24T05:45:17;22.70;;;12.32;;
18501;SDS011;68437;52.236;5.710;2023-07-24T05:47:44;23.02;;;12.00;;
18501;SDS011;68437;52.236;5.710;2023-07-24T05:50:10;24.58;;;11.68;;
18501;SDS011;68437;52.236;5.710;2023-07-24T05:52:38;23.15;;;11.82;;
18501;SDS011;68437;52.236;5.710;2023-07-24T05:55:06;20.40;;;12.07;;
18501;SDS011;68437;52.236;5.710;2023-07-24T05:57:33;22.13;;;12.45;;
18501;SDS011;68437;52.236;5.710;2023-07-24T06:00:00;18.98;;;11.23;;
18501;SDS011;68437;52.236;5.710;2023-07-24T06:02:28;19.95;;;11.98;;
18501;SDS011;68437;52.236;5.710;2023-07-24T06:04:55;22.15;;;11.70;;
18501;SDS011;68437;52.236;5.710;2023-07-24T06:07:22;21.30;;;11.90;;
18501;SDS011;68437;52.236;5.710;2023-07-24T06:09:49;22.50;;;11.90;;
18501;SDS011;68437;52.236;5.710;2023-07-24T06:12:16;20.08;;;11.02;;
18501;SDS011;68437;52.236;5.710;2023-07-24T06:14:43;23.52;;;12.40;;
18501;SDS011;68437;52.236;5.710;2023-07-24T06:17:10;19.92;;;11.43;;
18501;SDS011;68437;52.236;5.710;2023-07-24T06:19:38;22.30;;;11.13;;
18501;SDS011;68437;52.236;5.710;2023-07-24T06:22:05;20.85;;;11.30;;
18501;SDS011;68437;52.236;5.710;2023-07-24T06:24:33;24.42;;;11.60;;
18501;SDS011;68437;52.236;5.710;2023-07-24T06:26:59;22.20;;;11.80;;
18501;SDS011;68437;52.236;5.710;2023-07-24T06:29:26;21.73;;;11.10;;
18501;SDS011;68437;52.236;5.710;2023-07-24T06:31:53;23.05;;;11.40;;
18501;SDS011;68437;52.236;5.710;2023-07-24T06:34:20;19.45;;;10.70;;
18501;SDS011;68437;52.236;5.710;2023-07-24T06:36:48;18.73;;;10.68;;
18501;SDS011;68437;52.236;5.710;2023-07-24T06:39:15;20.33;;;10.55;;
18501;SDS011;68437;52.236;5.710;2023-07-24T06:41:42;19.83;;;10.27;;
18501;SDS011;68437;52.236;5.710;2023-07-24T06:44:09;19.33;;;10.57;;
18501;SDS011;68437;52.236;5.710;2023-07-24T06:46:36;20.92;;;10.30;;
18501;SDS011;68437;52.236;5.710;2023-07-24T06:49:03;16.20;;;8.85;;
18501;SDS011;68437;52.236;5.710;2023-07-24T06:51:29;19.80;;;9.43;;
18501;SDS011;68437;52.236;5.710;2023-07-24T06:53:58;17.98;;;9.15;;
18501;SDS011;68437;52.236;5.710;2023-07-24T06:56:25;17.33;;;9.07;;
18501;SDS011;68437;52.236;5.710;2023-07-24T06:58:51;20.45;;;9.38;;
18501;SDS011;68437;52.236;5.710;2023-07-24T07:01:18;19.02;;;9.30;;
18501;SDS011;68437;52.236;5.710;2023-07-24T07:03:45;19.00;;;8.82;;
18501;SDS011;68437;52.236;5.710;2023-07-24T07:06:12;20.02;;;10.02;;
18501;SDS011;68437;52.236;5.710;2023-07-24T07:08:40;17.50;;;9.98;;
18501;SDS011;68437;52.236;5.710;2023-07-24T07:11:08;18.40;;;9.90;;
18501;SDS011;68437;52.236;5.710;2023-07-24T07:13:35;18.00;;;10.52;;
18501;SDS011;68437;52.236;5.710;2023-07-24T07:16:02;21.00;;;10.10;;
18501;SDS011;68437;52.236;5.710;2023-07-24T07:18:29;19.05;;;9.90;;
18501;SDS011;68437;52.236;5.710;2023-07-24T07:20:56;20.92;;;10.07;;
18501;SDS011;68437;52.236;5.710;2023-07-24T07:23:23;16.35;;;9.55;;
18501;SDS011;68437;52.236;5.710;2023-07-24T07:25:50;19.55;;;9.70;;
18501;SDS011;68437;52.236;5.710;2023-07-24T07:28:18;15.98;;;8.40;;
18501;SDS011;68437;52.236;5.710;2023-07-24T07:30:46;14.73;;;8.45;;
18501;SDS011;68437;52.236;5.710;2023-07-24T07:33:13;13.13;;;7.85;;
18501;SDS011;68437;52.236;5.710;2023-07-24T07:35:40;13.57;;;7.30;;
18501;SDS011;68437;52.236;5.710;2023-07-24T07:38:07;16.60;;;7.68;;
18501;SDS011;68437;52.236;5.710;2023-07-24T07:40:33;12.80;;;6.75;;
18501;SDS011;68437;52.236;5.710;2023-07-24T07:43:03;15.20;;;7.55;;
18501;SDS011;68437;52.236;5.710;2023-07-24T07:45:31;14.35;;;7.07;;
18501;SDS011;68437;52.236;5.710;2023-07-24T07:47:58;13.07;;;7.20;;
18501;SDS011;68437;52.236;5.710;2023-07-24T07:50:25;13.00;;;6.97;;
18501;SDS011;68437;52.236;5.710;2023-07-24T07:52:52;19.27;;;8.13;;
18501;SDS011;68437;52.236;5.710;2023-07-24T07:55:19;20.42;;;7.72;;
18501;SDS011;68437;52.236;5.710;2023-07-24T07:57:46;16.95;;;8.32;;
18501;SDS011;68437;52.236;5.710;2023-07-24T08:00:16;18.83;;;9.02;;
18501;SDS011;68437;52.236;5.710;2023-07-24T08:02:44;15.98;;;7.85;;
18501;SDS011;68437;52.236;5.710;2023-07-24T08:05:11;15.25;;;8.10;;
18501;SDS011;68437;52.236;5.710;2023-07-24T08:07:38;13.68;;;7.60;;
18501;SDS011;68437;52.236;5.710;2023-07-24T08:10:05;15.38;;;7.10;;
18501;SDS011;68437;52.236;5.710;2023-07-24T08:12:32;13.55;;;7.78;;
18501;SDS011;68437;52.236;5.710;2023-07-24T08:14:59;12.93;;;7.30;;
18501;SDS011;68437;52.236;5.710;2023-07-24T08:17:26;12.68;;;7.28;;
18501;SDS011;68437;52.236;5.710;2023-07-24T08:19:54;13.98;;;7.22;;
18501;SDS011;68437;52.236;5.710;2023-07-24T08:22:21;13.02;;;7.45;;
18501;SDS011;68437;52.236;5.710;2023-07-24T08:24:48;12.38;;;7.60;;
18501;SDS011;68437;52.236;5.710;2023-07-24T08:27:16;14.73;;;7.90;;
18501;SDS011;68437;52.236;5.710;2023-07-24T08:29:43;12.80;;;8.02;;
18501;SDS011;68437;52.236;5.710;2023-07-24T08:32:10;15.07;;;7.53;;
18501;SDS011;68437;52.236;5.710;2023-07-24T08:34:37;14.25;;;7.93;;
18501;SDS011;68437;52.236;5.710;2023-07-24T08:37:06;14.55;;;7.55;;
18501;SDS011;68437;52.236;5.710;2023-07-24T08:39:33;12.88;;;7.55;;
18501;SDS011;68437;52.236;5.710;2023-07-24T08:42:00;12.00;;;7.63;;
18501;SDS011;68437;52.236;5.710;2023-07-24T08:44:34;12.38;;;7.25;;
18501;SDS011;68437;52.236;5.710;2023-07-24T08:47:03;18.67;;;8.30;;
18501;SDS011;68437;52.236;5.710;2023-07-24T08:49:31;14.77;;;7.95;;
18501;SDS011;68437;52.236;5.710;2023-07-24T08:51:59;16.45;;;8.38;;
18501;SDS011;68437;52.236;5.710;2023-07-24T08:54:28;14.63;;;8.38;;
18501;SDS011;68437;52.236;5.710;2023-07-24T08:56:57;13.82;;;7.43;;
18501;SDS011;68437;52.236;5.710;2023-07-24T08:59:24;13.32;;;7.50;;
18501;SDS011;68437;52.236;5.710;2023-07-24T09:01:52;13.07;;;7.90;;
18501;SDS011;68437;52.236;5.710;2023-07-24T09:04:18;13.70;;;8.05;;
18501;SDS011;68437;52.236;5.710;2023-07-24T09:06:45;15.63;;;7.95;;
18501;SDS011;68437;52.236;5.710;2023-07-24T09:09:13;15.48;;;7.85;;
18501;SDS011;68437;52.236;5.710;2023-07-24T09:11:48;11.40;;;7.60;;
18501;SDS011;68437;52.236;5.710;2023-07-24T09:14:25;15.45;;;7.78;;
18501;SDS011;68437;52.236;5.710;2023-07-24T09:17:03;15.13;;;7.57;;
18501;SDS011;68437;52.236;5.710;2023-07-24T09:19:30;15.15;;;7.18;;
18501;SDS011;68437;52.236;5.710;2023-07-24T09:22:07;13.77;;;7.05;;
18501;SDS011;68437;52.236;5.710;2023-07-24T09:24:35;12.40;;;6.47;;
18501;SDS011;68437;52.236;5.710;2023-07-24T09:27:04;13.73;;;6.65;;
18501;SDS011;68437;52.236;5.710;2023-07-24T09:29:31;10.10;;;6.40;;
18501;SDS011;68437;52.236;5.710;2023-07-24T09:31:59;10.38;;;6.00;;
18501;SDS011;68437;52.236;5.710;2023-07-24T09:34:26;12.77;;;6.40;;
18501;SDS011;68437;52.236;5.710;2023-07-24T09:36:53;11.57;;;6.43;;
18501;SDS011;68437;52.236;5.710;2023-07-24T09:39:22;12.27;;;6.60;;
18501;SDS011;68437;52.236;5.710;2023-07-24T09:41:50;12.32;;;6.95;;
18501;SDS011;68437;52.236;5.710;2023-07-24T09:44:18;15.63;;;7.63;;
18501;SDS011;68437;52.236;5.710;2023-07-24T09:46:45;15.27;;;8.40;;
18501;SDS011;68437;52.236;5.710;2023-07-24T09:49:12;12.10;;;7.32;;
18501;SDS011;68437;52.236;5.710;2023-07-24T09:51:40;13.13;;;7.50;;
18501;SDS011;68437;52.236;5.710;2023-07-24T09:54:12;12.75;;;7.95;;
18501;SDS011;68437;52.236;5.710;2023-07-24T09:56:46;16.80;;;9.13;;
18501;SDS011;68437;52.236;5.710;2023-07-24T09:59:13;14.18;;;8.40;;
18501;SDS011;68437;52.236;5.710;2023-07-24T10:01:42;13.40;;;8.13;;
18501;SDS011;68437;52.236;5.710;2023-07-24T10:04:10;14.50;;;8.13;;
18501;SDS011;68437;52.236;5.710;2023-07-24T10:06:38;16.15;;;8.93;;
18501;SDS011;68437;52.236;5.710;2023-07-24T10:09:05;15.57;;;8.35;;
18501;SDS011;68437;52.236;5.710;2023-07-24T10:11:33;13.55;;;8.40;;
18501;SDS011;68437;52.236;5.710;2023-07-24T10:14:00;15.90;;;8.07;;
18501;SDS011;68437;52.236;5.710;2023-07-24T10:16:28;13.65;;;7.85;;
18501;SDS011;68437;52.236;5.710;2023-07-24T10:18:56;15.02;;;8.50;;
18501;SDS011;68437;52.236;5.710;2023-07-24T10:21:26;18.08;;;9.00;;
18501;SDS011;68437;52.236;5.710;2023-07-24T10:23:53;14.43;;;8.52;;
18501;SDS011;68437;52.236;5.710;2023-07-24T10:26:24;11.63;;;8.05;;
18501;SDS011;68437;52.236;5.710;2023-07-24T10:28:51;11.30;;;7.32;;
18501;SDS011;68437;52.236;5.710;2023-07-24T10:31:19;14.82;;;7.30;;
18501;SDS011;68437;52.236;5.710;2023-07-24T10:33:48;13.45;;;6.70;;
18501;SDS011;68437;52.236;5.710;2023-07-24T10:36:18;12.48;;;6.90;;
18501;SDS011;68437;52.236;5.710;2023-07-24T10:38:51;12.88;;;6.68;;
18501;SDS011;68437;52.236;5.710;2023-07-24T10:41:19;12.63;;;6.93;;
18501;SDS011;68437;52.236;5.710;2023-07-24T10:43:46;10.93;;;6.78;;
18501;SDS011;68437;52.236;5.710;2023-07-24T10:46:15;9.68;;;6.20;;
18501;SDS011;68437;52.236;5.710;2023-07-24T10:48:44;11.75;;;7.07;;
18501;SDS011;68437;52.236;5.710;2023-07-24T10:51:12;13.48;;;7.28;;
18501;SDS011;68437;52.236;5.710;2023-07-24T10:53:45;14.43;;;6.93;;
18501;SDS011;68437;52.236;5.710;2023-07-24T10:56:14;11.68;;;6.88;;
18501;SDS011;68437;52.236;5.710;2023-07-24T10:58:42;14.13;;;6.88;;
18501;SDS011;68437;52.236;5.710;2023-07-24T11:01:09;14.40;;;7.45;;
18501;SDS011;68437;52.236;5.710;2023-07-24T11:03:37;13.07;;;7.60;;
18501;SDS011;68437;52.236;5.710;2023-07-24T11:06:04;14.30;;;6.82;;
18501;SDS011;68437;52.236;5.710;2023-07-24T11:08:31;14.10;;;6.63;;
18501;SDS011;68437;52.236;5.710;2023-07-24T11:11:02;14.00;;;7.55;;
18501;SDS011;68437;52.236;5.710;2023-07-24T11:13:29;15.60;;;7.40;;
18501;SDS011;68437;52.236;5.710;2023-07-24T11:15:56;13.10;;;7.22;;
18501;SDS011;68437;52.236;5.710;2023-07-24T11:18:29;12.85;;;7.10;;
18501;SDS011;68437;52.236;5.710;2023-07-24T11:20:56;14.13;;;7.20;;
18501;SDS011;68437;52.236;5.710;2023-07-24T11:23:23;12.32;;;7.07;;
18501;SDS011;68437;52.236;5.710;2023-07-24T11:25:50;13.88;;;7.40;;
18501;SDS011;68437;52.236;5.710;2023-07-24T11:28:19;11.95;;;6.75;;
18501;SDS011;68437;52.236;5.710;2023-07-24T11:30:46;14.15;;;6.70;;
18501;SDS011;68437;52.236;5.710;2023-07-24T11:33:14;12.77;;;6.68;;
18501;SDS011;68437;52.236;5.710;2023-07-24T11:35:42;13.77;;;6.82;;
18501;SDS011;68437;52.236;5.710;2023-07-24T11:38:09;10.93;;;6.18;;
18501;SDS011;68437;52.236;5.710;2023-07-24T11:40:37;10.68;;;6.07;;
18501;SDS011;68437;52.236;5.710;2023-07-24T11:43:14;10.48;;;5.95;;
18501;SDS011;68437;52.236;5.710;2023-07-24T11:45:44;10.38;;;5.90;;
18501;SDS011;68437;52.236;5.710;2023-07-24T11:48:12;11.48;;;5.70;;
18501;SDS011;68437;52.236;5.710;2023-07-24T11:50:42;12.02;;;6.78;;
18501;SDS011;68437;52.236;5.710;2023-07-24T11:53:18;16.10;;;7.68;;
18501;SDS011;68437;52.236;5.710;2023-07-24T11:55:47;12.05;;;6.70;;
18501;SDS011;68437;52.236;5.710;2023-07-24T11:58:15;14.00;;;7.30;;
18501;SDS011;68437;52.236;5.710;2023-07-24T12:00:43;13.15;;;6.93;;
18501;SDS011;68437;52.236;5.710;2023-07-24T12:03:12;11.40;;;7.35;;
18501;SDS011;68437;52.236;5.710;2023-07-24T12:05:39;10.55;;;6.85;;
18501;SDS011;68437;52.236;5.710;2023-07-24T12:08:07;14.25;;;7.63;;
18501;SDS011;68437;52.236;5.710;2023-07-24T12:10:35;12.75;;;7.85;;
18501;SDS011;68437;52.236;5.710;2023-07-24T12:13:03;16.13;;;7.80;;
18501;SDS011;68437;52.236;5.710;2023-07-24T12:15:30;14.77;;;8.00;;
18501;SDS011;68437;52.236;5.710;2023-07-24T12:18:00;13.65;;;8.02;;
18501;SDS011;68437;52.236;5.710;2023-07-24T12:20:27;16.90;;;8.02;;
18501;SDS011;68437;52.236;5.710;2023-07-24T12:22:55;16.15;;;7.57;;
18501;SDS011;68437;52.236;5.710;2023-07-24T12:25:22;14.25;;;8.75;;
18501;SDS011;68437;52.236;5.710;2023-07-24T12:27:49;14.70;;;8.60;;
18501;SDS011;68437;52.236;5.710;2023-07-24T12:30:16;14.48;;;9.07;;
18501;SDS011;68437;52.236;5.710;2023-07-24T12:32:44;19.42;;;11.60;;
18501;SDS011;68437;52.236;5.710;2023-07-24T12:35:12;21.10;;;12.63;;
18501;SDS011;68437;52.236;5.710;2023-07-24T12:37:39;25.30;;;13.70;;
18501;SDS011;68437;52.236;5.710;2023-07-24T12:40:07;26.70;;;15.82;;
18501;SDS011;68437;52.236;5.710;2023-07-24T12:42:34;31.02;;;15.90;;
18501;SDS011;68437;52.236;5.710;2023-07-24T12:45:01;24.77;;;16.80;;
18501;SDS011;68437;52.236;5.710;2023-07-24T12:47:29;29.35;;;17.20;;
18501;SDS011;68437;52.236;5.710;2023-07-24T12:49:56;26.45;;;17.33;;
18501;SDS011;68437;52.236;5.710;2023-07-24T12:52:25;28.73;;;17.27;;
18501;SDS011;68437;52.236;5.710;2023-07-24T12:54:52;27.60;;;16.02;;
18501;SDS011;68437;52.236;5.710;2023-07-24T12:57:19;24.80;;;14.93;;
18501;SDS011;68437;52.236;5.710;2023-07-24T12:59:46;26.00;;;16.05;;
18501;SDS011;68437;52.236;5.710;2023-07-24T13:02:13;22.55;;;14.55;;
18501;SDS011;68437;52.236;5.710;2023-07-24T13:04:40;19.73;;;13.73;;
18501;SDS011;68437;52.236;5.710;2023-07-24T13:07:07;21.95;;;12.50;;
18501;SDS011;68437;52.236;5.710;2023-07-24T13:09:35;29.75;;;13.93;;
18501;SDS011;68437;52.236;5.710;2023-07-24T13:12:02;21.25;;;13.85;;
18501;SDS011;68437;52.236;5.710;2023-07-24T13:14:29;24.70;;;14.55;;
18501;SDS011;68437;52.236;5.710;2023-07-24T13:16:56;25.08;;;15.43;;
18501;SDS011;68437;52.236;5.710;2023-07-24T13:19:23;23.33;;;16.02;;
18501;SDS011;68437;52.236;5.710;2023-07-24T13:21:50;28.00;;;16.00;;
18501;SDS011;68437;52.236;5.710;2023-07-24T13:24:17;32.17;;;17.52;;
18501;SDS011;68437;52.236;5.710;2023-07-24T13:26:45;27.17;;;16.98;;
18501;SDS011;68437;52.236;5.710;2023-07-24T13:29:12;26.25;;;16.55;;
18501;SDS011;68437;52.236;5.710;2023-07-24T13:31:39;23.05;;;15.95;;
18501;SDS011;68437;52.236;5.710;2023-07-24T13:34:06;22.90;;;14.93;;
18501;SDS011;68437;52.236;5.710;2023-07-24T13:36:33;24.02;;;13.90;;
18501;SDS011;68437;52.236;5.710;2023-07-24T13:39:00;20.73;;;13.90;;
18501;SDS011;68437;52.236;5.710;2023-07-24T13:41:27;17.98;;;11.55;;
18501;SDS011;68437;52.236;5.710;2023-07-24T13:43:56;16.77;;;11.48;;
18501;SDS011;68437;52.236;5.710;2023-07-24T13:46:23;17.50;;;11.95;;
18501;SDS011;68437;52.236;5.710;2023-07-24T13:48:49;19.55;;;11.60;;
18501;SDS011;68437;52.236;5.710;2023-07-24T13:51:16;16.70;;;10.70;;
18501;SDS011;68437;52.236;5.710;2023-07-24T13:53:43;16.08;;;10.73;;
18501;SDS011;68437;52.236;5.710;2023-07-24T13:56:12;16.95;;;11.05;;
18501;SDS011;68437;52.236;5.710;2023-07-24T13:58:39;16.95;;;11.38;;
18501;SDS011;68437;52.236;5.710;2023-07-24T14:01:07;16.85;;;11.00;;
18501;SDS011;68437;52.236;5.710;2023-07-24T14:03:35;16.10;;;10.15;;
18501;SDS011;68437;52.236;5.710;2023-07-24T14:06:02;15.23;;;10.93;;
18501;SDS011;68437;52.236;5.710;2023-07-24T14:08:29;15.85;;;10.77;;
18501;SDS011;68437;52.236;5.710;2023-07-24T14:10:56;19.50;;;11.60;;
18501;SDS011;68437;52.236;5.710;2023-07-24T14:13:23;17.35;;;11.40;;
18501;SDS011;68437;52.236;5.710;2023-07-24T14:15:50;17.00;;;10.40;;
18501;SDS011;68437;52.236;5.710;2023-07-24T14:18:19;19.67;;;10.50;;
18501;SDS011;68437;52.236;5.710;2023-07-24T14:20:46;18.35;;;11.15;;
18501;SDS011;68437;52.236;5.710;2023-07-24T14:23:13;19.67;;;12.63;;
18501;SDS011;68437;52.236;5.710;2023-07-24T14:25:40;19.38;;;12.93;;
18501;SDS011;68437;52.236;5.710;2023-07-24T14:28:07;18.65;;;12.05;;
18501;SDS011;68437;52.236;5.710;2023-07-24T14:30:34;19.88;;;13.15;;